Chenois Creek, Washington
Current Conditions -  °F | °C
As of 8:53 PM on Friday 28 Nov 2014 (Local Time) from KHQM Reporting Station
Light Rain Light Rain  
Wind Chill:   Ceiling: 5000
Heat Index:   Visibility: 6mi
Dew Point:   Wind: 13mph
Humidity: 85%   Direction: 290°WNW
Pressure: 29.56"   Gusts: 17mph
Location:  47.0202°N, 123.878°W
Report Text: KHQM 290453Z AUTO 29011G15KT 250V330 6SM -RA BR FEW021 SCT033 OVC050 06/03 A2956 RMK AO2 RAE01B49 SLP014 P0000 T00560033
Loading
Personal Weather Stations






























Interactive Weather Map New forecast layout! Learn more

10-Day Weather Forecast

Advertisements
Track Severe Weather on mobile